sensor_id;sensor_type;location;lat;lon;timestamp;P1;durP1;ratioP1;P2;durP2;ratioP2
52730;SDS011;38624;53.242;6.974;2022-09-01T00:02:13;1.23;;;0.90;;
52730;SDS011;38624;53.242;6.974;2022-09-01T00:07:08;1.35;;;1.05;;
52730;SDS011;38624;53.242;6.974;2022-09-01T00:09:35;2.33;;;0.90;;
52730;SDS011;38624;53.242;6.974;2022-09-01T00:12:02;1.07;;;0.73;;
52730;SDS011;38624;53.242;6.974;2022-09-01T00:14:30;3.08;;;1.08;;
52730;SDS011;38624;53.242;6.974;2022-09-01T00:16:59;3.03;;;1.10;;
52730;SDS011;38624;53.242;6.974;2022-09-01T00:19:27;1.10;;;0.80;;
52730;SDS011;38624;53.242;6.974;2022-09-01T00:21:54;0.90;;;0.80;;
52730;SDS011;38624;53.242;6.974;2022-09-01T00:24:20;1.65;;;1.00;;
52730;SDS011;38624;53.242;6.974;2022-09-01T00:26:46;2.15;;;0.80;;
52730;SDS011;38624;53.242;6.974;2022-09-01T00:29:12;1.15;;;0.88;;
52730;SDS011;38624;53.242;6.974;2022-09-01T00:31:38;3.23;;;0.90;;
52730;SDS011;38624;53.242;6.974;2022-09-01T00:34:04;2.33;;;0.95;;
52730;SDS011;38624;53.242;6.974;2022-09-01T00:36:30;3.00;;;1.00;;
52730;SDS011;38624;53.242;6.974;2022-09-01T00:38:56;2.90;;;1.03;;
52730;SDS011;38624;53.242;6.974;2022-09-01T00:41:22;2.97;;;1.00;;
52730;SDS011;38624;53.242;6.974;2022-09-01T00:43:55;3.28;;;1.00;;
52730;SDS011;38624;53.242;6.974;2022-09-01T00:46:40;2.15;;;0.82;;
52730;SDS011;38624;53.242;6.974;2022-09-01T00:49:11;4.82;;;0.90;;
52730;SDS011;38624;53.242;6.974;2022-09-01T00:51:41;2.25;;;0.98;;
52730;SDS011;38624;53.242;6.974;2022-09-01T00:54:12;2.42;;;1.08;;
52730;SDS011;38624;53.242;6.974;2022-09-01T00:56:43;1.38;;;1.00;;
52730;SDS011;38624;53.242;6.974;2022-09-01T00:59:10;2.08;;;0.90;;
52730;SDS011;38624;53.242;6.974;2022-09-01T01:01:37;0.90;;;0.80;;
52730;SDS011;38624;53.242;6.974;2022-09-01T01:04:04;3.28;;;1.00;;
52730;SDS011;38624;53.242;6.974;2022-09-01T01:06:39;1.55;;;1.00;;
52730;SDS011;38624;53.242;6.974;2022-09-01T01:09:15;2.38;;;1.00;;
52730;SDS011;38624;53.242;6.974;2022-09-01T01:11:42;1.00;;;0.90;;
52730;SDS011;38624;53.242;6.974;2022-09-01T01:14:12;1.30;;;0.88;;
52730;SDS011;38624;53.242;6.974;2022-09-01T01:16:42;1.63;;;0.90;;
52730;SDS011;38624;53.242;6.974;2022-09-01T01:19:53;2.33;;;0.80;;
52730;SDS011;38624;53.242;6.974;2022-09-01T01:22:28;1.25;;;0.70;;
52730;SDS011;38624;53.242;6.974;2022-09-01T01:25:16;1.58;;;0.88;;
52730;SDS011;38624;53.242;6.974;2022-09-01T01:27:43;1.25;;;0.80;;
52730;SDS011;38624;53.242;6.974;2022-09-01T01:30:10;2.17;;;1.00;;
52730;SDS011;38624;53.242;6.974;2022-09-01T01:32:37;1.75;;;0.90;;
52730;SDS011;38624;53.242;6.974;2022-09-01T01:35:08;1.65;;;0.80;;
52730;SDS011;38624;53.242;6.974;2022-09-01T01:37:39;2.15;;;0.90;;
52730;SDS011;38624;53.242;6.974;2022-09-01T01:40:10;2.08;;;1.00;;
52730;SDS011;38624;53.242;6.974;2022-09-01T01:42:50;0.95;;;0.88;;
52730;SDS011;38624;53.242;6.974;2022-09-01T01:47:46;2.22;;;0.73;;
52730;SDS011;38624;53.242;6.974;2022-09-01T01:50:27;1.55;;;0.90;;
52730;SDS011;38624;53.242;6.974;2022-09-01T01:52:57;2.88;;;1.00;;
52730;SDS011;38624;53.242;6.974;2022-09-01T01:55:25;1.30;;;1.10;;
52730;SDS011;38624;53.242;6.974;2022-09-01T01:57:55;1.48;;;0.93;;
52730;SDS011;38624;53.242;6.974;2022-09-01T02:00:25;1.30;;;0.90;;
52730;SDS011;38624;53.242;6.974;2022-09-01T02:02:53;1.83;;;0.90;;
52730;SDS011;38624;53.242;6.974;2022-09-01T02:07:56;1.45;;;0.90;;
52730;SDS011;38624;53.242;6.974;2022-09-01T02:10:29;3.30;;;0.90;;
52730;SDS011;38624;53.242;6.974;2022-09-01T02:12:58;1.58;;;0.90;;
52730;SDS011;38624;53.242;6.974;2022-09-01T02:15:28;2.13;;;0.80;;
52730;SDS011;38624;53.242;6.974;2022-09-01T02:17:56;2.22;;;1.00;;
52730;SDS011;38624;53.242;6.974;2022-09-01T02:20:24;1.20;;;1.00;;
52730;SDS011;38624;53.242;6.974;2022-09-01T02:22:54;1.77;;;0.80;;
52730;SDS011;38624;53.242;6.974;2022-09-01T02:25:20;1.88;;;1.20;;
52730;SDS011;38624;53.242;6.974;2022-09-01T02:27:47;1.30;;;1.00;;
52730;SDS011;38624;53.242;6.974;2022-09-01T02:30:17;1.38;;;0.90;;
52730;SDS011;38624;53.242;6.974;2022-09-01T02:32:43;2.40;;;1.00;;
52730;SDS011;38624;53.242;6.974;2022-09-01T02:35:09;2.00;;;1.00;;
52730;SDS011;38624;53.242;6.974;2022-09-01T02:37:36;1.58;;;1.00;;
52730;SDS011;38624;53.242;6.974;2022-09-01T02:40:04;1.48;;;0.90;;
52730;SDS011;38624;53.242;6.974;2022-09-01T02:42:34;1.58;;;0.80;;
52730;SDS011;38624;53.242;6.974;2022-09-01T02:45:05;2.42;;;1.13;;
52730;SDS011;38624;53.242;6.974;2022-09-01T02:47:39;2.85;;;1.30;;
52730;SDS011;38624;53.242;6.974;2022-09-01T02:50:09;2.42;;;1.10;;
52730;SDS011;38624;53.242;6.974;2022-09-01T02:52:41;3.83;;;1.23;;
52730;SDS011;38624;53.242;6.974;2022-09-01T02:55:07;1.42;;;1.00;;
52730;SDS011;38624;53.242;6.974;2022-09-01T02:57:33;2.70;;;1.20;;
52730;SDS011;38624;53.242;6.974;2022-09-01T02:59:59;1.70;;;1.20;;
52730;SDS011;38624;53.242;6.974;2022-09-01T03:02:26;3.45;;;1.30;;
52730;SDS011;38624;53.242;6.974;2022-09-01T03:04:53;1.95;;;1.45;;
52730;SDS011;38624;53.242;6.974;2022-09-01T03:12:13;3.53;;;1.30;;
52730;SDS011;38624;53.242;6.974;2022-09-01T03:14:39;3.60;;;1.50;;
52730;SDS011;38624;53.242;6.974;2022-09-01T03:17:05;1.87;;;1.30;;
52730;SDS011;38624;53.242;6.974;2022-09-01T03:19:31;2.53;;;1.17;;
52730;SDS011;38624;53.242;6.974;2022-09-01T03:22:01;2.33;;;1.10;;
52730;SDS011;38624;53.242;6.974;2022-09-01T03:24:26;1.37;;;1.20;;
52730;SDS011;38624;53.242;6.974;2022-09-01T03:26:52;2.50;;;1.33;;
52730;SDS011;38624;53.242;6.974;2022-09-01T03:29:18;1.83;;;1.17;;
52730;SDS011;38624;53.242;6.974;2022-09-01T03:31:44;2.53;;;1.10;;
52730;SDS011;38624;53.242;6.974;2022-09-01T03:34:10;2.00;;;1.23;;
52730;SDS011;38624;53.242;6.974;2022-09-01T03:36:36;2.58;;;1.27;;
52730;SDS011;38624;53.242;6.974;2022-09-01T03:39:04;2.00;;;1.30;;
52730;SDS011;38624;53.242;6.974;2022-09-01T03:41:34;2.38;;;1.45;;
52730;SDS011;38624;53.242;6.974;2022-09-01T03:46:27;1.45;;;1.15;;
52730;SDS011;38624;53.242;6.974;2022-09-01T03:48:56;2.00;;;1.20;;
52730;SDS011;38624;53.242;6.974;2022-09-01T03:51:25;2.88;;;1.52;;
52730;SDS011;38624;53.242;6.974;2022-09-01T03:53:55;3.22;;;1.50;;
52730;SDS011;38624;53.242;6.974;2022-09-01T03:56:22;1.88;;;1.25;;
52730;SDS011;38624;53.242;6.974;2022-09-01T03:58:50;1.27;;;1.10;;
52730;SDS011;38624;53.242;6.974;2022-09-01T04:01:16;3.85;;;1.40;;
52730;SDS011;38624;53.242;6.974;2022-09-01T04:03:43;4.20;;;1.58;;
52730;SDS011;38624;53.242;6.974;2022-09-01T04:06:12;1.83;;;1.30;;
52730;SDS011;38624;53.242;6.974;2022-09-01T04:08:39;2.17;;;1.42;;
52730;SDS011;38624;53.242;6.974;2022-09-01T04:11:17;1.70;;;1.30;;
52730;SDS011;38624;53.242;6.974;2022-09-01T04:13:50;2.35;;;1.42;;
52730;SDS011;38624;53.242;6.974;2022-09-01T04:16:27;2.42;;;1.50;;
52730;SDS011;38624;53.242;6.974;2022-09-01T04:19:15;2.92;;;1.33;;
52730;SDS011;38624;53.242;6.974;2022-09-01T04:21:45;5.25;;;1.58;;
52730;SDS011;38624;53.242;6.974;2022-09-01T04:24:14;2.47;;;1.50;;
52730;SDS011;38624;53.242;6.974;2022-09-01T04:26:40;2.83;;;1.70;;
52730;SDS011;38624;53.242;6.974;2022-09-01T04:29:08;4.15;;;1.60;;
52730;SDS011;38624;53.242;6.974;2022-09-01T04:31:35;2.42;;;1.40;;
52730;SDS011;38624;53.242;6.974;2022-09-01T04:36:33;3.00;;;1.40;;
52730;SDS011;38624;53.242;6.974;2022-09-01T04:39:00;2.33;;;1.70;;
52730;SDS011;38624;53.242;6.974;2022-09-01T04:41:33;2.95;;;1.60;;
52730;SDS011;38624;53.242;6.974;2022-09-01T04:44:01;2.58;;;1.65;;
52730;SDS011;38624;53.242;6.974;2022-09-01T04:46:29;2.65;;;1.58;;
52730;SDS011;38624;53.242;6.974;2022-09-01T04:48:59;6.03;;;1.80;;
52730;SDS011;38624;53.242;6.974;2022-09-01T04:51:34;2.55;;;1.58;;
52730;SDS011;38624;53.242;6.974;2022-09-01T04:54:02;3.03;;;1.60;;
52730;SDS011;38624;53.242;6.974;2022-09-01T04:56:33;3.08;;;1.60;;
52730;SDS011;38624;53.242;6.974;2022-09-01T05:01:31;1.95;;;1.50;;
52730;SDS011;38624;53.242;6.974;2022-09-01T05:04:11;2.92;;;1.70;;
52730;SDS011;38624;53.242;6.974;2022-09-01T05:06:39;3.25;;;1.80;;
52730;SDS011;38624;53.242;6.974;2022-09-01T05:09:07;4.07;;;1.80;;
52730;SDS011;38624;53.242;6.974;2022-09-01T05:11:36;4.13;;;1.63;;
52730;SDS011;38624;53.242;6.974;2022-09-01T05:14:03;4.60;;;1.50;;
52730;SDS011;38624;53.242;6.974;2022-09-01T05:16:31;2.35;;;1.55;;
52730;SDS011;38624;53.242;6.974;2022-09-01T05:18:58;2.97;;;1.60;;
52730;SDS011;38624;53.242;6.974;2022-09-01T05:21:25;2.78;;;1.45;;
52730;SDS011;38624;53.242;6.974;2022-09-01T05:23:54;2.08;;;1.67;;
52730;SDS011;38624;53.242;6.974;2022-09-01T05:26:23;3.40;;;1.45;;
52730;SDS011;38624;53.242;6.974;2022-09-01T05:28:52;2.15;;;1.60;;
52730;SDS011;38624;53.242;6.974;2022-09-01T05:31:21;2.00;;;1.50;;
52730;SDS011;38624;53.242;6.974;2022-09-01T05:33:48;2.40;;;1.40;;
52730;SDS011;38624;53.242;6.974;2022-09-01T05:36:16;2.40;;;1.35;;
52730;SDS011;38624;53.242;6.974;2022-09-01T05:38:44;3.67;;;1.58;;
52730;SDS011;38624;53.242;6.974;2022-09-01T05:41:12;1.92;;;1.35;;
52730;SDS011;38624;53.242;6.974;2022-09-01T05:43:42;2.50;;;1.60;;
52730;SDS011;38624;53.242;6.974;2022-09-01T05:46:17;2.40;;;1.58;;
52730;SDS011;38624;53.242;6.974;2022-09-01T05:48:45;3.08;;;1.85;;
52730;SDS011;38624;53.242;6.974;2022-09-01T05:51:13;6.00;;;1.80;;
52730;SDS011;38624;53.242;6.974;2022-09-01T05:53:44;2.75;;;1.80;;
52730;SDS011;38624;53.242;6.974;2022-09-01T05:56:10;2.35;;;1.70;;
52730;SDS011;38624;53.242;6.974;2022-09-01T05:58:37;2.95;;;1.90;;
52730;SDS011;38624;53.242;6.974;2022-09-01T06:01:04;4.65;;;1.63;;
52730;SDS011;38624;53.242;6.974;2022-09-01T06:03:30;2.83;;;1.50;;
52730;SDS011;38624;53.242;6.974;2022-09-01T06:06:04;3.03;;;1.60;;
52730;SDS011;38624;53.242;6.974;2022-09-01T06:08:36;2.28;;;1.45;;
52730;SDS011;38624;53.242;6.974;2022-09-01T06:11:03;2.30;;;1.40;;
52730;SDS011;38624;53.242;6.974;2022-09-01T06:13:37;4.50;;;1.50;;
52730;SDS011;38624;53.242;6.974;2022-09-01T06:16:06;2.85;;;1.60;;
52730;SDS011;38624;53.242;6.974;2022-09-01T06:18:34;3.00;;;1.58;;
52730;SDS011;38624;53.242;6.974;2022-09-01T06:21:04;2.13;;;1.50;;
52730;SDS011;38624;53.242;6.974;2022-09-01T06:23:32;2.10;;;1.42;;
52730;SDS011;38624;53.242;6.974;2022-09-01T06:26:00;2.20;;;1.40;;
52730;SDS011;38624;53.242;6.974;2022-09-01T06:28:28;3.88;;;1.55;;
52730;SDS011;38624;53.242;6.974;2022-09-01T06:30:54;2.45;;;1.60;;
52730;SDS011;38624;53.242;6.974;2022-09-01T06:33:21;1.73;;;1.30;;
52730;SDS011;38624;53.242;6.974;2022-09-01T06:35:49;4.03;;;1.50;;
52730;SDS011;38624;53.242;6.974;2022-09-01T06:38:16;3.97;;;1.70;;
52730;SDS011;38624;53.242;6.974;2022-09-01T06:40:43;3.30;;;1.50;;
52730;SDS011;38624;53.242;6.974;2022-09-01T06:43:11;5.30;;;1.52;;
52730;SDS011;38624;53.242;6.974;2022-09-01T06:45:42;2.78;;;1.23;;
52730;SDS011;38624;53.242;6.974;2022-09-01T06:48:10;2.75;;;1.40;;
52730;SDS011;38624;53.242;6.974;2022-09-01T06:50:40;2.67;;;1.60;;
52730;SDS011;38624;53.242;6.974;2022-09-01T06:53:06;1.67;;;1.30;;
52730;SDS011;38624;53.242;6.974;2022-09-01T06:55:35;2.65;;;1.60;;
52730;SDS011;38624;53.242;6.974;2022-09-01T06:58:05;2.20;;;1.60;;
52730;SDS011;38624;53.242;6.974;2022-09-01T07:00:35;2.63;;;1.50;;
52730;SDS011;38624;53.242;6.974;2022-09-01T07:03:04;4.15;;;1.55;;
52730;SDS011;38624;53.242;6.974;2022-09-01T07:05:37;2.70;;;1.50;;
52730;SDS011;38624;53.242;6.974;2022-09-01T07:08:08;1.85;;;1.40;;
52730;SDS011;38624;53.242;6.974;2022-09-01T07:10:55;3.55;;;1.40;;
52730;SDS011;38624;53.242;6.974;2022-09-01T07:13:23;2.75;;;1.40;;
52730;SDS011;38624;53.242;6.974;2022-09-01T07:15:52;2.20;;;1.50;;
52730;SDS011;38624;53.242;6.974;2022-09-01T07:18:20;3.83;;;1.38;;
52730;SDS011;38624;53.242;6.974;2022-09-01T07:20:51;2.30;;;1.40;;
52730;SDS011;38624;53.242;6.974;2022-09-01T07:23:18;2.47;;;1.35;;
52730;SDS011;38624;53.242;6.974;2022-09-01T07:25:45;3.03;;;1.42;;
52730;SDS011;38624;53.242;6.974;2022-09-01T07:28:13;3.13;;;1.30;;
52730;SDS011;38624;53.242;6.974;2022-09-01T07:30:47;2.00;;;1.30;;
52730;SDS011;38624;53.242;6.974;2022-09-01T07:33:16;1.83;;;1.20;;
52730;SDS011;38624;53.242;6.974;2022-09-01T07:35:46;3.92;;;1.75;;
52730;SDS011;38624;53.242;6.974;2022-09-01T07:38:12;1.93;;;1.30;;
52730;SDS011;38624;53.242;6.974;2022-09-01T07:40:39;2.45;;;1.40;;
52730;SDS011;38624;53.242;6.974;2022-09-01T07:43:07;2.25;;;1.25;;
52730;SDS011;38624;53.242;6.974;2022-09-01T07:45:44;3.55;;;1.20;;
52730;SDS011;38624;53.242;6.974;2022-09-01T07:48:13;2.35;;;1.15;;
52730;SDS011;38624;53.242;6.974;2022-09-01T07:50:44;4.35;;;1.58;;
52730;SDS011;38624;53.242;6.974;2022-09-01T07:53:13;1.98;;;1.30;;
52730;SDS011;38624;53.242;6.974;2022-09-01T07:55:42;3.35;;;1.42;;
52730;SDS011;38624;53.242;6.974;2022-09-01T07:58:12;2.95;;;1.50;;
52730;SDS011;38624;53.242;6.974;2022-09-01T08:00:38;2.20;;;1.30;;
52730;SDS011;38624;53.242;6.974;2022-09-01T08:03:07;3.42;;;1.50;;
52730;SDS011;38624;53.242;6.974;2022-09-01T08:05:33;2.77;;;1.47;;
52730;SDS011;38624;53.242;6.974;2022-09-01T08:07:59;2.97;;;1.70;;
52730;SDS011;38624;53.242;6.974;2022-09-01T08:10:25;3.03;;;1.60;;
52730;SDS011;38624;53.242;6.974;2022-09-01T08:12:51;3.42;;;1.67;;
52730;SDS011;38624;53.242;6.974;2022-09-01T08:15:16;3.73;;;1.60;;
52730;SDS011;38624;53.242;6.974;2022-09-01T08:17:43;2.70;;;1.53;;
52730;SDS011;38624;53.242;6.974;2022-09-01T08:20:09;1.92;;;1.30;;
52730;SDS011;38624;53.242;6.974;2022-09-01T08:22:35;2.45;;;1.58;;
52730;SDS011;38624;53.242;6.974;2022-09-01T08:25:05;4.75;;;1.40;;
52730;SDS011;38624;53.242;6.974;2022-09-01T08:27:33;2.40;;;1.63;;
52730;SDS011;38624;53.242;6.974;2022-09-01T08:30:04;2.33;;;1.60;;
52730;SDS011;38624;53.242;6.974;2022-09-01T08:32:31;2.70;;;1.50;;
52730;SDS011;38624;53.242;6.974;2022-09-01T08:34:57;2.10;;;1.30;;
52730;SDS011;38624;53.242;6.974;2022-09-01T08:37:23;6.10;;;1.50;;
52730;SDS011;38624;53.242;6.974;2022-09-01T08:39:49;4.20;;;1.67;;
52730;SDS011;38624;53.242;6.974;2022-09-01T08:47:56;2.88;;;1.55;;
52730;SDS011;38624;53.242;6.974;2022-09-01T08:50:25;2.92;;;1.70;;
52730;SDS011;38624;53.242;6.974;2022-09-01T08:55:50;2.72;;;1.58;;
52730;SDS011;38624;53.242;6.974;2022-09-01T08:58:22;3.10;;;1.40;;
52730;SDS011;38624;53.242;6.974;2022-09-01T09:00:51;3.65;;;1.63;;
52730;SDS011;38624;53.242;6.974;2022-09-01T09:03:35;2.50;;;1.42;;
52730;SDS011;38624;53.242;6.974;2022-09-01T09:06:31;2.13;;;1.40;;
52730;SDS011;38624;53.242;6.974;2022-09-01T09:16:47;4.70;;;1.40;;
52730;SDS011;38624;53.242;6.974;2022-09-01T09:21:53;3.28;;;1.60;;
52730;SDS011;38624;53.242;6.974;2022-09-01T09:27:15;3.55;;;1.30;;
52730;SDS011;38624;53.242;6.974;2022-09-01T09:29:57;3.75;;;1.50;;
52730;SDS011;38624;53.242;6.974;2022-09-01T09:35:16;2.30;;;1.20;;
52730;SDS011;38624;53.242;6.974;2022-09-01T09:37:44;2.20;;;1.10;;
52730;SDS011;38624;53.242;6.974;2022-09-01T09:40:14;3.50;;;1.23;;
52730;SDS011;38624;53.242;6.974;2022-09-01T09:48:04;3.42;;;1.00;;
52730;SDS011;38624;53.242;6.974;2022-09-01T09:50:37;3.20;;;1.10;;
52730;SDS011;38624;53.242;6.974;2022-09-01T09:58:33;1.98;;;1.15;;
52730;SDS011;38624;53.242;6.974;2022-09-01T10:01:12;4.63;;;1.02;;
52730;SDS011;38624;53.242;6.974;2022-09-01T10:03:59;1.58;;;1.02;;
52730;SDS011;38624;53.242;6.974;2022-09-01T10:06:41;2.13;;;1.10;;
52730;SDS011;38624;53.242;6.974;2022-09-01T10:09:15;2.65;;;0.98;;
52730;SDS011;38624;53.242;6.974;2022-09-01T10:12:02;2.88;;;0.88;;
52730;SDS011;38624;53.242;6.974;2022-09-01T10:17:07;2.53;;;0.95;;
52730;SDS011;38624;53.242;6.974;2022-09-01T10:19:37;0.70;;;0.70;;
52730;SDS011;38624;53.242;6.974;2022-09-01T10:22:07;2.08;;;0.80;;
52730;SDS011;38624;53.242;6.974;2022-09-01T10:24:34;1.23;;;0.93;;
52730;SDS011;38624;53.242;6.974;2022-09-01T10:27:24;2.58;;;1.00;;
52730;SDS011;38624;53.242;6.974;2022-09-01T10:29:51;1.70;;;1.00;;
52730;SDS011;38624;53.242;6.974;2022-09-01T10:32:27;2.53;;;1.08;;
52730;SDS011;38624;53.242;6.974;2022-09-01T10:34:57;3.25;;;0.80;;
52730;SDS011;38624;53.242;6.974;2022-09-01T10:37:23;1.70;;;0.90;;
52730;SDS011;38624;53.242;6.974;2022-09-01T10:42:40;2.15;;;0.90;;
52730;SDS011;38624;53.242;6.974;2022-09-01T10:50:45;1.17;;;0.80;;
52730;SDS011;38624;53.242;6.974;2022-09-01T10:59:04;1.60;;;0.77;;
52730;SDS011;38624;53.242;6.974;2022-09-01T11:04:18;3.30;;;0.80;;
52730;SDS011;38624;53.242;6.974;2022-09-01T11:07:12;2.53;;;0.90;;
52730;SDS011;38624;53.242;6.974;2022-09-01T11:17:53;4.13;;;0.70;;
52730;SDS011;38624;53.242;6.974;2022-09-01T11:25:47;2.80;;;1.00;;
52730;SDS011;38624;53.242;6.974;2022-09-01T11:36:33;3.17;;;0.80;;
52730;SDS011;38624;53.242;6.974;2022-09-01T11:41:57;0.77;;;0.60;;
52730;SDS011;38624;53.242;6.974;2022-09-01T11:44:33;1.02;;;0.75;;
52730;SDS011;38624;53.242;6.974;2022-09-01T11:47:26;2.20;;;0.80;;
52730;SDS011;38624;53.242;6.974;2022-09-01T11:50:07;0.83;;;0.70;;
52730;SDS011;38624;53.242;6.974;2022-09-01T11:52:51;1.98;;;0.80;;
52730;SDS011;38624;53.242;6.974;2022-09-01T11:55:37;1.73;;;0.73;;
52730;SDS011;38624;53.242;6.974;2022-09-01T11:58:11;2.65;;;0.70;;
52730;SDS011;38624;53.242;6.974;2022-09-01T12:03:40;4.20;;;0.88;;
52730;SDS011;38624;53.242;6.974;2022-09-01T12:06:07;0.93;;;0.73;;
52730;SDS011;38624;53.242;6.974;2022-09-01T12:08:35;1.05;;;0.80;;
52730;SDS011;38624;53.242;6.974;2022-09-01T12:11:08;1.67;;;1.00;;
52730;SDS011;38624;53.242;6.974;2022-09-01T12:13:36;0.93;;;0.57;;
52730;SDS011;38624;53.242;6.974;2022-09-01T12:16:06;2.58;;;0.60;;
52730;SDS011;38624;53.242;6.974;2022-09-01T12:18:43;1.38;;;0.70;;
52730;SDS011;38624;53.242;6.974;2022-09-01T12:21:20;2.60;;;0.60;;
52730;SDS011;38624;53.242;6.974;2022-09-01T12:23:51;1.45;;;0.60;;
52730;SDS011;38624;53.242;6.974;2022-09-01T12:26:18;0.93;;;0.70;;
52730;SDS011;38624;53.242;6.974;2022-09-01T12:28:48;0.95;;;0.70;;
52730;SDS011;38624;53.242;6.974;2022-09-01T12:31:16;3.05;;;0.80;;
52730;SDS011;38624;53.242;6.974;2022-09-01T12:33:45;0.85;;;0.70;;
52730;SDS011;38624;53.242;6.974;2022-09-01T12:41:42;2.80;;;0.65;;
52730;SDS011;38624;53.242;6.974;2022-09-01T12:44:29;1.52;;;0.60;;
52730;SDS011;38624;53.242;6.974;2022-09-01T12:46:56;5.43;;;0.90;;
52730;SDS011;38624;53.242;6.974;2022-09-01T12:49:34;0.85;;;0.60;;
52730;SDS011;38624;53.242;6.974;2022-09-01T12:54:48;1.23;;;0.70;;
52730;SDS011;38624;53.242;6.974;2022-09-01T12:57:24;1.17;;;0.73;;
52730;SDS011;38624;53.242;6.974;2022-09-01T13:05:17;1.23;;;0.70;;
52730;SDS011;38624;53.242;6.974;2022-09-01T13:07:44;2.47;;;0.60;;
52730;SDS011;38624;53.242;6.974;2022-09-01T13:10:10;2.40;;;0.80;;
52730;SDS011;38624;53.242;6.974;2022-09-01T13:12:39;1.38;;;0.70;;
52730;SDS011;38624;53.242;6.974;2022-09-01T13:15:09;2.72;;;0.60;;
52730;SDS011;38624;53.242;6.974;2022-09-01T13:17:36;3.95;;;0.80;;
52730;SDS011;38624;53.242;6.974;2022-09-01T13:20:03;2.08;;;0.70;;
52730;SDS011;38624;53.242;6.974;2022-09-01T13:22:29;1.05;;;0.70;;
52730;SDS011;38624;53.242;6.974;2022-09-01T13:24:55;4.53;;;0.73;;
52730;SDS011;38624;53.242;6.974;2022-09-01T13:27:21;2.15;;;0.60;;
52730;SDS011;38624;53.242;6.974;2022-09-01T13:29:47;4.63;;;0.70;;
52730;SDS011;38624;53.242;6.974;2022-09-01T13:32:14;0.57;;;0.50;;
52730;SDS011;38624;53.242;6.974;2022-09-01T13:34:41;1.60;;;0.73;;
52730;SDS011;38624;53.242;6.974;2022-09-01T13:37:06;1.95;;;0.73;;
52730;SDS011;38624;53.242;6.974;2022-09-01T13:39:32;0.80;;;0.60;;
52730;SDS011;38624;53.242;6.974;2022-09-01T13:41:58;1.73;;;0.70;;
52730;SDS011;38624;53.242;6.974;2022-09-01T13:44:23;2.75;;;0.52;;
52730;SDS011;38624;53.242;6.974;2022-09-01T13:46:49;1.50;;;0.70;;
52730;SDS011;38624;53.242;6.974;2022-09-01T13:49:15;0.68;;;0.60;;
52730;SDS011;38624;53.242;6.974;2022-09-01T13:51:40;0.88;;;0.50;;
52730;SDS011;38624;53.242;6.974;2022-09-01T13:54:06;1.02;;;0.50;;
52730;SDS011;38624;53.242;6.974;2022-09-01T13:56:32;1.00;;;0.60;;
52730;SDS011;38624;53.242;6.974;2022-09-01T13:58:59;0.95;;;0.47;;
52730;SDS011;38624;53.242;6.974;2022-09-01T14:01:25;0.73;;;0.50;;
52730;SDS011;38624;53.242;6.974;2022-09-01T14:03:50;1.13;;;0.50;;
52730;SDS011;38624;53.242;6.974;2022-09-01T14:06:16;0.68;;;0.50;;
52730;SDS011;38624;53.242;6.974;2022-09-01T14:08:42;3.85;;;0.70;;
52730;SDS011;38624;53.242;6.974;2022-09-01T14:11:14;1.85;;;0.80;;
52730;SDS011;38624;53.242;6.974;2022-09-01T14:13:41;2.55;;;0.60;;
52730;SDS011;38624;53.242;6.974;2022-09-01T14:16:09;0.98;;;0.60;;
52730;SDS011;38624;53.242;6.974;2022-09-01T14:18:36;1.67;;;0.45;;
52730;SDS011;38624;53.242;6.974;2022-09-01T14:21:02;0.82;;;0.45;;
52730;SDS011;38624;53.242;6.974;2022-09-01T14:23:28;1.05;;;0.50;;
52730;SDS011;38624;53.242;6.974;2022-09-01T14:25:54;2.63;;;0.60;;
52730;SDS011;38624;53.242;6.974;2022-09-01T14:28:20;1.05;;;0.50;;
52730;SDS011;38624;53.242;6.974;2022-09-01T14:30:48;0.82;;;0.50;;
52730;SDS011;38624;53.242;6.974;2022-09-01T14:33:15;1.02;;;0.50;;
52730;SDS011;38624;53.242;6.974;2022-09-01T14:35:42;1.83;;;0.70;;
52730;SDS011;38624;53.242;6.974;2022-09-01T14:38:10;0.93;;;0.43;;
52730;SDS011;38624;53.242;6.974;2022-09-01T14:40:38;1.98;;;0.80;;
52730;SDS011;38624;53.242;6.974;2022-09-01T14:43:08;3.97;;;0.70;;
52730;SDS011;38624;53.242;6.974;2022-09-01T14:45:38;0.73;;;0.50;;
52730;SDS011;38624;53.242;6.974;2022-09-01T14:48:04;1.83;;;0.60;;
52730;SDS011;38624;53.242;6.974;2022-09-01T14:50:30;0.93;;;0.50;;
52730;SDS011;38624;53.242;6.974;2022-09-01T14:52:58;1.13;;;0.50;;
52730;SDS011;38624;53.242;6.974;2022-09-01T14:55:25;1.05;;;0.70;;
52730;SDS011;38624;53.242;6.974;2022-09-01T14:57:53;1.77;;;0.60;;
52730;SDS011;38624;53.242;6.974;2022-09-01T15:00:19;2.83;;;0.80;;
52730;SDS011;38624;53.242;6.974;2022-09-01T15:02:46;0.75;;;0.60;;
52730;SDS011;38624;53.242;6.974;2022-09-01T15:07:38;1.73;;;0.60;;
52730;SDS011;38624;53.242;6.974;2022-09-01T15:10:05;1.83;;;0.60;;
52730;SDS011;38624;53.242;6.974;2022-09-01T15:12:32;1.27;;;0.63;;
52730;SDS011;38624;53.242;6.974;2022-09-01T15:14:58;0.65;;;0.50;;
52730;SDS011;38624;53.242;6.974;2022-09-01T15:17:25;1.48;;;0.70;;
52730;SDS011;38624;53.242;6.974;2022-09-01T15:19:51;2.75;;;0.55;;
52730;SDS011;38624;53.242;6.974;2022-09-01T15:22:17;1.85;;;0.60;;
52730;SDS011;38624;53.242;6.974;2022-09-01T15:27:09;1.48;;;0.50;;
52730;SDS011;38624;53.242;6.974;2022-09-01T15:29:35;0.88;;;0.55;;
52730;SDS011;38624;53.242;6.974;2022-09-01T15:32:09;1.55;;;0.70;;
52730;SDS011;38624;53.242;6.974;2022-09-01T15:34:35;2.33;;;0.50;;
52730;SDS011;38624;53.242;6.974;2022-09-01T15:37:01;1.35;;;0.50;;
52730;SDS011;38624;53.242;6.974;2022-09-01T15:39:28;1.65;;;0.55;;
52730;SDS011;38624;53.242;6.974;2022-09-01T15:44:20;0.98;;;0.50;;
52730;SDS011;38624;53.242;6.974;2022-09-01T15:46:46;0.82;;;0.50;;
52730;SDS011;38624;53.242;6.974;2022-09-01T15:51:42;4.00;;;0.60;;
52730;SDS011;38624;53.242;6.974;2022-09-01T15:54:14;1.83;;;0.45;;
52730;SDS011;38624;53.242;6.974;2022-09-01T15:56:41;0.65;;;0.60;;
52730;SDS011;38624;53.242;6.974;2022-09-01T15:59:08;3.30;;;0.60;;
52730;SDS011;38624;53.242;6.974;2022-09-01T16:01:35;1.10;;;0.57;;
52730;SDS011;38624;53.242;6.974;2022-09-01T16:04:04;0.57;;;0.50;;
52730;SDS011;38624;53.242;6.974;2022-09-01T16:06:31;2.95;;;0.63;;
52730;SDS011;38624;53.242;6.974;2022-09-01T16:08:57;2.00;;;0.60;;
52730;SDS011;38624;53.242;6.974;2022-09-01T16:13:50;2.10;;;0.63;;
52730;SDS011;38624;53.242;6.974;2022-09-01T16:21:43;2.00;;;0.60;;
52730;SDS011;38624;53.242;6.974;2022-09-01T16:24:31;1.50;;;0.60;;
52730;SDS011;38624;53.242;6.974;2022-09-01T16:27:03;3.80;;;0.50;;
52730;SDS011;38624;53.242;6.974;2022-09-01T16:29:41;1.85;;;0.70;;
52730;SDS011;38624;53.242;6.974;2022-09-01T16:32:13;1.60;;;0.50;;
52730;SDS011;38624;53.242;6.974;2022-09-01T16:34:43;2.38;;;0.60;;
52730;SDS011;38624;53.242;6.974;2022-09-01T16:39:47;1.90;;;0.85;;
52730;SDS011;38624;53.242;6.974;2022-09-01T16:47:42;2.17;;;0.70;;
52730;SDS011;38624;53.242;6.974;2022-09-01T16:50:33;1.10;;;0.63;;
52730;SDS011;38624;53.242;6.974;2022-09-01T16:53:10;1.25;;;0.70;;
52730;SDS011;38624;53.242;6.974;2022-09-01T16:58:26;0.50;;;0.50;;
52730;SDS011;38624;53.242;6.974;2022-09-01T17:01:13;0.80;;;0.50;;
52730;SDS011;38624;53.242;6.974;2022-09-01T17:03:55;1.13;;;0.60;;
52730;SDS011;38624;53.242;6.974;2022-09-01T17:09:26;0.90;;;0.50;;
52730;SDS011;38624;53.242;6.974;2022-09-01T17:12:41;0.68;;;0.52;;
52730;SDS011;38624;53.242;6.974;2022-09-01T17:14:52;0.80;;;0.50;;
52730;SDS011;38624;53.242;6.974;2022-09-01T17:17:57;1.45;;;0.50;;
52730;SDS011;38624;53.242;6.974;2022-09-01T17:20:28;1.13;;;0.50;;
52730;SDS011;38624;53.242;6.974;2022-09-01T17:22:59;0.70;;;0.45;;
52730;SDS011;38624;53.242;6.974;2022-09-01T17:25:35;1.27;;;0.45;;
52730;SDS011;38624;53.242;6.974;2022-09-01T17:28:15;1.40;;;0.70;;
52730;SDS011;38624;53.242;6.974;2022-09-01T17:30:52;1.23;;;0.60;;
52730;SDS011;38624;53.242;6.974;2022-09-01T17:33:31;1.83;;;0.60;;